sensor_id;sensor_type;location;lat;lon;timestamp;P1;durP1;ratioP1;P2;durP2;ratioP2
66089;SDS011;53113;45.602;11.904;2023-05-07T08:31:47;9.60;;;4.60;;
66089;SDS011;53113;45.602;11.904;2023-05-07T08:34:13;10.10;;;5.70;;
66089;SDS011;53113;45.602;11.904;2023-05-07T08:36:39;9.20;;;5.90;;
66089;SDS011;53113;45.602;11.904;2023-05-07T08:39:06;7.10;;;4.30;;
66089;SDS011;53113;45.602;11.904;2023-05-07T08:41:32;9.70;;;5.90;;
66089;SDS011;53113;45.602;11.904;2023-05-07T08:43:58;8.50;;;5.30;;
66089;SDS011;53113;45.602;11.904;2023-05-07T08:46:28;11.40;;;5.80;;
66089;SDS011;53113;45.602;11.904;2023-05-07T08:48:57;7.80;;;4.90;;
66089;SDS011;53113;45.602;11.904;2023-05-07T08:51:23;9.50;;;7.00;;
66089;SDS011;53113;45.602;11.904;2023-05-07T08:53:49;10.10;;;5.80;;
66089;SDS011;53113;45.602;11.904;2023-05-07T08:56:15;9.50;;;4.90;;
66089;SDS011;53113;45.602;11.904;2023-05-07T08:58:42;12.00;;;5.00;;
66089;SDS011;53113;45.602;11.904;2023-05-07T09:01:10;9.30;;;4.80;;
66089;SDS011;53113;45.602;11.904;2023-05-07T09:03:42;10.60;;;5.70;;
66089;SDS011;53113;45.602;11.904;2023-05-07T09:06:10;7.00;;;3.90;;
66089;SDS011;53113;45.602;11.904;2023-05-07T09:08:36;6.80;;;4.10;;
66089;SDS011;53113;45.602;11.904;2023-05-07T09:11:02;8.90;;;4.30;;
66089;SDS011;53113;45.602;11.904;2023-05-07T09:13:28;8.40;;;5.00;;
66089;SDS011;53113;45.602;11.904;2023-05-07T09:15:54;8.50;;;4.70;;
66089;SDS011;53113;45.602;11.904;2023-05-07T09:18:21;7.60;;;4.50;;
66089;SDS011;53113;45.602;11.904;2023-05-07T09:20:50;8.80;;;4.80;;
66089;SDS011;53113;45.602;11.904;2023-05-07T09:23:16;7.40;;;4.00;;
66089;SDS011;53113;45.602;11.904;2023-05-07T09:25:42;7.00;;;4.40;;
66089;SDS011;53113;45.602;11.904;2023-05-07T09:28:07;8.50;;;4.70;;
66089;SDS011;53113;45.602;11.904;2023-05-07T09:30:35;7.10;;;4.20;;
66089;SDS011;53113;45.602;11.904;2023-05-07T09:33:02;8.90;;;5.70;;
66089;SDS011;53113;45.602;11.904;2023-05-07T09:35:29;8.70;;;5.00;;
66089;SDS011;53113;45.602;11.904;2023-05-07T09:37:56;8.20;;;4.90;;
66089;SDS011;53113;45.602;11.904;2023-05-07T09:40:25;9.00;;;5.30;;
66089;SDS011;53113;45.602;11.904;2023-05-07T09:42:53;9.40;;;6.80;;
66089;SDS011;53113;45.602;11.904;2023-05-07T09:45:22;10.20;;;6.00;;
66089;SDS011;53113;45.602;11.904;2023-05-07T09:47:53;8.80;;;5.20;;
66089;SDS011;53113;45.602;11.904;2023-05-07T09:50:22;10.30;;;5.70;;
66089;SDS011;53113;45.602;11.904;2023-05-07T09:52:54;8.70;;;5.70;;
66089;SDS011;53113;45.602;11.904;2023-05-07T09:55:21;10.10;;;6.00;;
66089;SDS011;53113;45.602;11.904;2023-05-07T09:57:51;9.40;;;5.90;;
66089;SDS011;53113;45.602;11.904;2023-05-07T10:00:19;9.40;;;6.60;;
66089;SDS011;53113;45.602;11.904;2023-05-07T10:05:20;9.00;;;6.40;;
66089;SDS011;53113;45.602;11.904;2023-05-07T10:07:48;10.20;;;6.30;;
66089;SDS011;53113;45.602;11.904;2023-05-07T10:10:15;11.10;;;7.20;;
66089;SDS011;53113;45.602;11.904;2023-05-07T10:12:43;9.50;;;6.70;;
66089;SDS011;53113;45.602;11.904;2023-05-07T10:15:10;12.00;;;7.20;;
66089;SDS011;53113;45.602;11.904;2023-05-07T10:17:39;9.50;;;7.00;;
66089;SDS011;53113;45.602;11.904;2023-05-07T10:20:06;9.70;;;7.00;;
66089;SDS011;53113;45.602;11.904;2023-05-07T10:25:46;11.00;;;7.90;;
66089;SDS011;53113;45.602;11.904;2023-05-07T10:28:06;9.60;;;7.10;;
66089;SDS011;53113;45.602;11.904;2023-05-07T10:33:10;9.40;;;6.80;;
66089;SDS011;53113;45.602;11.904;2023-05-07T10:35:40;12.50;;;10.40;;
66089;SDS011;53113;45.602;11.904;2023-05-07T10:38:08;9.90;;;7.40;;
66089;SDS011;53113;45.602;11.904;2023-05-07T10:40:34;9.80;;;7.20;;
66089;SDS011;53113;45.602;11.904;2023-05-07T10:43:01;11.00;;;7.60;;
66089;SDS011;53113;45.602;11.904;2023-05-07T10:45:30;11.40;;;7.80;;
66089;SDS011;53113;45.602;11.904;2023-05-07T10:50:34;8.90;;;6.70;;
66089;SDS011;53113;45.602;11.904;2023-05-07T10:55:48;9.70;;;7.50;;
66089;SDS011;53113;45.602;11.904;2023-05-07T11:00:47;10.40;;;6.70;;
66089;SDS011;53113;45.602;11.904;2023-05-07T11:03:14;9.50;;;6.80;;
66089;SDS011;53113;45.602;11.904;2023-05-07T11:05:41;9.10;;;6.00;;
66089;SDS011;53113;45.602;11.904;2023-05-07T11:08:08;9.20;;;6.70;;
66089;SDS011;53113;45.602;11.904;2023-05-07T11:16:16;8.80;;;6.40;;
66089;SDS011;53113;45.602;11.904;2023-05-07T11:18:46;8.70;;;6.40;;
66089;SDS011;53113;45.602;11.904;2023-05-07T11:21:30;9.50;;;5.90;;
66089;SDS011;53113;45.602;11.904;2023-05-07T11:24:00;9.00;;;6.20;;
66089;SDS011;53113;45.602;11.904;2023-05-07T11:26:27;9.60;;;6.40;;
66089;SDS011;53113;45.602;11.904;2023-05-07T11:31:22;9.50;;;6.30;;
66089;SDS011;53113;45.602;11.904;2023-05-07T11:33:51;10.40;;;6.90;;
66089;SDS011;53113;45.602;11.904;2023-05-07T11:36:17;9.50;;;6.40;;
66089;SDS011;53113;45.602;11.904;2023-05-07T11:38:46;10.70;;;6.70;;
66089;SDS011;53113;45.602;11.904;2023-05-07T11:41:12;10.50;;;6.70;;
66089;SDS011;53113;45.602;11.904;2023-05-07T11:43:38;8.70;;;6.80;;
66089;SDS011;53113;45.602;11.904;2023-05-07T11:46:19;10.80;;;7.20;;
66089;SDS011;53113;45.602;11.904;2023-05-07T11:48:45;10.40;;;8.40;;
66089;SDS011;53113;45.602;11.904;2023-05-07T11:51:11;10.70;;;8.60;;
66089;SDS011;53113;45.602;11.904;2023-05-07T11:53:39;11.10;;;8.10;;
66089;SDS011;53113;45.602;11.904;2023-05-07T11:56:09;9.70;;;7.90;;
66089;SDS011;53113;45.602;11.904;2023-05-07T11:58:37;14.40;;;11.70;;
66089;SDS011;53113;45.602;11.904;2023-05-07T12:01:03;9.30;;;7.30;;
66089;SDS011;53113;45.602;11.904;2023-05-07T12:03:29;14.80;;;9.30;;
66089;SDS011;53113;45.602;11.904;2023-05-07T12:08:13;10.30;;;7.80;;
66089;SDS011;53113;45.602;11.904;2023-05-07T12:10:49;8.90;;;7.20;;
66089;SDS011;53113;45.602;11.904;2023-05-07T12:13:23;9.10;;;7.00;;
66089;SDS011;53113;45.602;11.904;2023-05-07T12:15:51;9.50;;;8.30;;
66089;SDS011;53113;45.602;11.904;2023-05-07T12:18:17;9.10;;;7.80;;
66089;SDS011;53113;45.602;11.904;2023-05-07T12:20:44;9.50;;;7.90;;
66089;SDS011;53113;45.602;11.904;2023-05-07T12:23:10;9.20;;;6.90;;
66089;SDS011;53113;45.602;11.904;2023-05-07T12:25:37;9.60;;;6.70;;
66089;SDS011;53113;45.602;11.904;2023-05-07T12:28:04;9.00;;;7.40;;
66089;SDS011;53113;45.602;11.904;2023-05-07T12:30:31;8.50;;;6.90;;
66089;SDS011;53113;45.602;11.904;2023-05-07T12:33:01;9.40;;;6.90;;
66089;SDS011;53113;45.602;11.904;2023-05-07T12:35:28;9.20;;;6.70;;
66089;SDS011;53113;45.602;11.904;2023-05-07T12:37:57;9.60;;;7.00;;
66089;SDS011;53113;45.602;11.904;2023-05-07T12:40:34;8.70;;;6.90;;
66089;SDS011;53113;45.602;11.904;2023-05-07T12:43:26;11.20;;;7.60;;
66089;SDS011;53113;45.602;11.904;2023-05-07T12:45:54;10.30;;;7.20;;
66089;SDS011;53113;45.602;11.904;2023-05-07T12:48:25;10.90;;;8.20;;
66089;SDS011;53113;45.602;11.904;2023-05-07T12:50:54;11.40;;;9.00;;
66089;SDS011;53113;45.602;11.904;2023-05-07T12:53:22;10.60;;;8.30;;
66089;SDS011;53113;45.602;11.904;2023-05-07T12:55:50;10.90;;;8.40;;
66089;SDS011;53113;45.602;11.904;2023-05-07T12:58:25;12.00;;;8.00;;
66089;SDS011;53113;45.602;11.904;2023-05-07T13:00:56;12.70;;;9.70;;
66089;SDS011;53113;45.602;11.904;2023-05-07T13:03:28;11.30;;;8.60;;
66089;SDS011;53113;45.602;11.904;2023-05-07T13:05:56;13.30;;;10.00;;
66089;SDS011;53113;45.602;11.904;2023-05-07T13:08:28;10.00;;;7.50;;
66089;SDS011;53113;45.602;11.904;2023-05-07T13:10:56;11.80;;;9.00;;
66089;SDS011;53113;45.602;11.904;2023-05-07T13:13:31;9.70;;;7.90;;
66089;SDS011;53113;45.602;11.904;2023-05-07T13:15:59;12.40;;;8.40;;
66089;SDS011;53113;45.602;11.904;2023-05-07T13:18:25;12.50;;;9.00;;
66089;SDS011;53113;45.602;11.904;2023-05-07T13:20:52;11.40;;;8.70;;
66089;SDS011;53113;45.602;11.904;2023-05-07T13:23:19;12.50;;;10.00;;
66089;SDS011;53113;45.602;11.904;2023-05-07T13:25:44;10.90;;;7.40;;
66089;SDS011;53113;45.602;11.904;2023-05-07T13:28:10;12.40;;;9.60;;
66089;SDS011;53113;45.602;11.904;2023-05-07T13:30:37;15.10;;;11.00;;
66089;SDS011;53113;45.602;11.904;2023-05-07T13:33:02;11.80;;;9.50;;
66089;SDS011;53113;45.602;11.904;2023-05-07T13:35:28;12.90;;;8.20;;
66089;SDS011;53113;45.602;11.904;2023-05-07T13:37:54;11.40;;;9.30;;
66089;SDS011;53113;45.602;11.904;2023-05-07T13:40:21;12.90;;;9.80;;
66089;SDS011;53113;45.602;11.904;2023-05-07T13:42:47;12.10;;;9.90;;
66089;SDS011;53113;45.602;11.904;2023-05-07T13:45:14;13.10;;;10.10;;
66089;SDS011;53113;45.602;11.904;2023-05-07T13:47:40;14.20;;;10.70;;
66089;SDS011;53113;45.602;11.904;2023-05-07T13:50:07;15.20;;;11.30;;
66089;SDS011;53113;45.602;11.904;2023-05-07T13:52:34;13.80;;;10.40;;
66089;SDS011;53113;45.602;11.904;2023-05-07T13:55:00;12.30;;;10.40;;
66089;SDS011;53113;45.602;11.904;2023-05-07T13:57:26;15.80;;;11.40;;
66089;SDS011;53113;45.602;11.904;2023-05-07T13:59:52;12.20;;;9.50;;
66089;SDS011;53113;45.602;11.904;2023-05-07T14:02:18;12.80;;;10.80;;
66089;SDS011;53113;45.602;11.904;2023-05-07T14:04:44;16.60;;;9.70;;
66089;SDS011;53113;45.602;11.904;2023-05-07T14:07:10;13.20;;;11.00;;
66089;SDS011;53113;45.602;11.904;2023-05-07T14:09:35;13.10;;;11.00;;
66089;SDS011;53113;45.602;11.904;2023-05-07T14:12:01;13.50;;;10.40;;
66089;SDS011;53113;45.602;11.904;2023-05-07T14:14:27;12.10;;;10.20;;
66089;SDS011;53113;45.602;11.904;2023-05-07T14:16:52;11.50;;;8.70;;
66089;SDS011;53113;45.602;11.904;2023-05-07T14:19:19;11.90;;;10.10;;
66089;SDS011;53113;45.602;11.904;2023-05-07T14:21:45;12.60;;;9.80;;
66089;SDS011;53113;45.602;11.904;2023-05-07T14:24:10;13.00;;;9.80;;
66089;SDS011;53113;45.602;11.904;2023-05-07T14:26:36;13.50;;;11.60;;
66089;SDS011;53113;45.602;11.904;2023-05-07T14:29:02;11.40;;;9.40;;
66089;SDS011;53113;45.602;11.904;2023-05-07T14:31:28;15.10;;;11.00;;
66089;SDS011;53113;45.602;11.904;2023-05-07T14:33:54;15.70;;;12.70;;
66089;SDS011;53113;45.602;11.904;2023-05-07T14:36:23;12.20;;;10.30;;
66089;SDS011;53113;45.602;11.904;2023-05-07T14:41:19;12.60;;;10.20;;
66089;SDS011;53113;45.602;11.904;2023-05-07T14:43:47;12.90;;;10.40;;
66089;SDS011;53113;45.602;11.904;2023-05-07T14:46:17;11.80;;;9.80;;
66089;SDS011;53113;45.602;11.904;2023-05-07T14:48:46;14.00;;;11.10;;
66089;SDS011;53113;45.602;11.904;2023-05-07T14:51:12;13.40;;;10.80;;
66089;SDS011;53113;45.602;11.904;2023-05-07T14:53:40;13.30;;;10.00;;
66089;SDS011;53113;45.602;11.904;2023-05-07T14:56:07;13.70;;;10.20;;
66089;SDS011;53113;45.602;11.904;2023-05-07T14:58:33;10.90;;;9.20;;
66089;SDS011;53113;45.602;11.904;2023-05-07T15:01:00;11.70;;;8.60;;
66089;SDS011;53113;45.602;11.904;2023-05-07T15:03:26;12.70;;;9.40;;
66089;SDS011;53113;45.602;11.904;2023-05-07T15:05:53;10.70;;;8.50;;
66089;SDS011;53113;45.602;11.904;2023-05-07T15:08:19;13.50;;;10.70;;
66089;SDS011;53113;45.602;11.904;2023-05-07T15:10:46;12.10;;;9.70;;
66089;SDS011;53113;45.602;11.904;2023-05-07T15:13:12;13.00;;;10.30;;
66089;SDS011;53113;45.602;11.904;2023-05-07T15:15:38;12.20;;;10.00;;
66089;SDS011;53113;45.602;11.904;2023-05-07T15:18:04;12.70;;;10.40;;
66089;SDS011;53113;45.602;11.904;2023-05-07T15:20:32;12.40;;;9.20;;
66089;SDS011;53113;45.602;11.904;2023-05-07T15:22:58;12.40;;;9.20;;
66089;SDS011;53113;45.602;11.904;2023-05-07T15:25:26;11.00;;;8.80;;
66089;SDS011;53113;45.602;11.904;2023-05-07T15:27:52;11.40;;;8.50;;
66089;SDS011;53113;45.602;11.904;2023-05-07T15:30:18;11.80;;;9.00;;
66089;SDS011;53113;45.602;11.904;2023-05-07T15:32:45;12.10;;;9.30;;
66089;SDS011;53113;45.602;11.904;2023-05-07T15:35:12;15.80;;;11.00;;
66089;SDS011;53113;45.602;11.904;2023-05-07T15:37:38;11.40;;;9.30;;
66089;SDS011;53113;45.602;11.904;2023-05-07T15:40:05;11.90;;;9.30;;
66089;SDS011;53113;45.602;11.904;2023-05-07T15:42:32;14.70;;;10.20;;
66089;SDS011;53113;45.602;11.904;2023-05-07T15:44:59;13.20;;;9.20;;
66089;SDS011;53113;45.602;11.904;2023-05-07T15:47:26;11.40;;;8.70;;
66089;SDS011;53113;45.602;11.904;2023-05-07T15:49:53;13.10;;;10.30;;
66089;SDS011;53113;45.602;11.904;2023-05-07T15:52:18;13.60;;;11.80;;
66089;SDS011;53113;45.602;11.904;2023-05-07T15:54:45;12.60;;;9.60;;
66089;SDS011;53113;45.602;11.904;2023-05-07T15:57:13;11.50;;;8.90;;
66089;SDS011;53113;45.602;11.904;2023-05-07T15:59:41;13.80;;;9.60;;
